Hlavní strana
METAR-TAF:

METAR-TAF

Letiště :

Rygge, Norsko

zeměpisná šířka: 59-23N, zeměpisná délka: 010-47E, výška: 5 m

Aktuální stav počasí

Zpráva byla vytvořena před 36 minutami, v 21:20 UTC
Východojihovýchodní vítr 8 kt
Teplota 3°C
Vlhkost vzduchu 100%
Tlak 998 hPa
Viditelnost: 6000 m
Polojasno ve výšce 600 ft
Oblačno až skoro zataženo ve výšce 2000 ft
slabý déšť

METAR: ENRY 122120Z 12008KT 6000 -RA SCT006 BKN020 03/03 Q0998

Čas: 22:56 (21:56 UTC)

Předpověď počasí

Předpověď platná od 12 v 18 UTC do 13 v 18 UTC
Jihojihovýchodní vítr 8 kt
Viditelnost 10 km a více
Polojasno ve výšce 1500 ft
Oblačno až skoro zataženo ve výšce 2500 ft
Dočasný
od 12 v 18 UTC do 13 v 18 UTC
Viditelnost: 4000 m
Oblačno až skoro zataženo ve výšce 800 ft
Polojasno ve výšce 1500 ft, Cumulonimbus.
dešťové přeháňky, kouřmo

TAF: ENRY 1218/1318 16008KT 9999 SCT015 BKN025 TEMPO 1218/1318 4000 SHRA BR BKN008 SCT015CB

Stav a předpovědi počasí z více než 4 000 letišť (zprávy METAR a TAF).

Červené a žluté tečky na mapě představují dostupné meteorologické stanice.

Když kurzor umístíte na tečku, zobrazí se název stanice.

Pak kliknutím zobrazíte stav a předpověď počasí.

Chcete-li změnit mapu, kliknutím na zelené tlačítko se znaménkem +mapu přiblížíte, kliknutím na zelené tlačítko se znaménkem – mapu oddálíte a kliknutím na zelené šipky přejdete na sousední mapy.


METAR-TAF: